Shinsen Maru — JG5654 — position and weather

sailwx.info

Track history (hours):
 
Tides and Currents Weather Stations Pressure Air Temp Water Temp Dewpoint Dewpoint Depression Visibility Wind Speed Wind Dir Waves Ship Positions

Shinsen Maru

Last reported at 2017-Nov-17 15:58 UTC. Time now 2017-Nov-21 20:55 UTC.
Position N 34°55' E 140°04'.

Length 160 m; draft 6.8 m.

Type: Cargo ship. MMSI: 431100987.

Date/timePositionNaut miles runAvg speedWind from/ knotsBaromVisibWave heightAir tempDewpointWater temp
2017-Nov-17 15:58N 34°55' E 140°04'916.3
2017-Nov-17 15:24N 34°52' E 139°53'615.4
2017-Nov-17 15:00N 34°53' E 139°46'815.6
2017-Nov-17 14:30N 35°00' E 139°42'917.0
2017-Nov-17 14:00N 35°09' E 139°44'714.5
2017-Nov-17 13:30N 35°16' E 139°46'612.2
2017-Nov-17 13:00N 35°21' E 139°42'815.5
2017-Nov-17 12:31N 35°28' E 139°48'713.7
2017-Nov-17 12:01N 35°34' E 139°48'4 0.3
2017-Nov-16 23:02N 35°38' E 139°46'0 0.0
2017-Nov-16 22:45N 35°38' E 139°46'2 6.8
2017-Nov-16 22:30N 35°36' E 139°46'815.1
2017-Nov-16 22:00N 35°30' E 139°52'815.9
2017-Nov-16 21:30N 35°24' E 139°46'612.0
2017-Nov-16 21:00N 35°18' E 139°44'612.5
2017-Nov-16 20:30N 35°12' E 139°47'816.8
2017-Nov-16 20:00N 35°04' E 139°44'917.1
2017-Nov-16 19:30N 34°56' E 139°42'713.2
2017-Nov-16 19:00N 34°51' E 139°47'1117.1
2017-Nov-16 18:21N 34°51' E 140°01'  
2017-Nov-13 01:00N 35°38' E 139°46'1 2.6
2017-Nov-13 00:30N 35°37' E 139°46'611.7
2017-Nov-13 00:00N 35°33' E 139°52'1 0.5
2017-Nov-12 21:59N 35°34' E 139°53'0 0.0
2017-Nov-12 21:26N 35°34' E 139°53'0 0.0
2017-Nov-12 20:59N 35°34' E 139°53'0 0.0
2017-Nov-12 20:11N 35°34' E 139°53'0 0.0
2017-Nov-12 18:41N 35°34' E 139°53'0 0.0
2017-Nov-12 18:23N 35°34' E 139°53'0 0.0
2017-Nov-12 17:41N 35°34' E 139°53'0 0.0
2017-Nov-12 17:29N 35°34' E 139°53'0 0.0
2017-Nov-12 16:44N 35°34' E 139°53'0 0.0
2017-Nov-12 16:17N 35°34' E 139°53'0 0.0
2017-Nov-12 15:59N 35°34' E 139°53'0 0.0
2017-Nov-12 15:29N 35°34' E 139°53'0 0.0
2017-Nov-12 14:56N 35°34' E 139°53'0 0.1
2017-Nov-12 14:02N 35°34' E 139°53'0 0.0
2017-Nov-12 13:59N 35°34' E 139°53'0 0.0
2017-Nov-12 13:29N 35°34' E 139°53'0 0.0
2017-Nov-12 12:59N 35°34' E 139°53'0 0.1
2017-Nov-12 12:26N 35°34' E 139°53'0 0.0
2017-Nov-12 11:53N 35°34' E 139°53'0 0.0
2017-Nov-12 11:29N 35°34' E 139°53'0 0.0
2017-Nov-12 10:56N 35°34' E 139°53'0 0.0
2017-Nov-12 10:17N 35°34' E 139°53'0 0.2
2017-Nov-12 09:59N 35°34' E 139°53'0 0.0
2017-Nov-12 09:29N 35°34' E 139°53'0 0.0
2017-Nov-12 08:59N 35°34' E 139°53'0 0.1
2017-Nov-12 08:29N 35°34' E 139°53'0 0.1
2017-Nov-12 07:56N 35°34' E 139°53'0 0.0
2017-Nov-12 07:29N 35°34' E 139°53'0 0.0
2017-Nov-12 06:56N 35°34' E 139°53'1 3.1
2017-Nov-12 06:30N 35°32' E 139°53'815.7
2017-Nov-12 06:00N 35°26' E 139°48'713.5
2017-Nov-12 05:30N 35°20' E 139°44'612.2
2017-Nov-12 05:00N 35°14' E 139°47'815.0
2017-Nov-12 04:30N 35°07' E 139°44'816.8
2017-Nov-12 04:00N 35°01' E 139°36'816.4
2017-Nov-12 03:30N 34°56' E 139°29'22913.5
2017-Nov-11 10:38N 34°05' E 134°58'218.0
2017-Nov-11 10:30N 34°08' E 134°58'1417.6
2017-Nov-11 09:41N 34°22' E 135°01'317.8
2017-Nov-11 09:30N 34°24' E 135°03'917.4
2017-Nov-11 09:00N 34°30' E 135°12'917.4
2017-Nov-11 08:30N 34°35' E 135°20'4 0.9
2017-Nov-11 03:31N 34°37' E 135°25'0 0.0
2017-Nov-11 03:29N 34°37' E 135°25'1 2.2
2017-Nov-11 03:00N 34°36' E 135°24'613.2
2017-Nov-11 02:30N 34°32' E 135°17'816.1
2017-Nov-11 02:00N 34°27' E 135°11'1017.1
2017-Nov-11 01:27N 34°20' E 135°02'715.2
2017-Nov-11 01:00N 34°13' E 135°00'816.6
2017-Nov-11 00:30N 34°05' E 135°01'23013.7
2017-Nov-10 07:44N 34°60' E 139°32'416.5
2017-Nov-10 07:31N 35°02' E 139°36'817.0
2017-Nov-10 07:01N 35°08' E 139°44'815.9
2017-Nov-10 06:30N 35°15' E 139°46'612.9
2017-Nov-10 06:00N 35°21' E 139°42'816.8
2017-Nov-10 05:31N 35°28' E 139°48'714.3
2017-Nov-10 05:00N 35°35' E 139°48'3 0.5
2017-Nov-09 22:11N 35°38' E 139°46'0 0.9
2017-Nov-09 21:58N 35°38' E 139°46'2 4.5
2017-Nov-09 21:30N 35°36' E 139°47'4 8.9
2017-Nov-09 21:00N 35°33' E 139°51'713.9
2017-Nov-09 20:30N 35°26' E 139°49'713.9
2017-Nov-09 20:00N 35°20' E 139°45'611.9
2017-Nov-09 19:30N 35°15' E 139°47'612.7
2017-Nov-09 19:00N 35°08' E 139°46'2010.3
2017-Nov-09 17:01N 34°58' E 140°08'018.4
2017-Nov-09 17:00N 34°58' E 140°08'  
Track history (hours):
 
Tides and Currents Weather Stations Pressure Air Temp Water Temp Dewpoint Dewpoint Depression Visibility Wind Speed Wind Dir Waves Ship Positions

Shinsen Maru

Last reported at 2017-Nov-17 15:58 UTC. Time now 2017-Nov-21 20:55 UTC.
Position N 34°55' E 140°04'.

Length 160 m; draft 6.8 m.

Type: Cargo ship. MMSI: 431100987.

Date/timePositionNaut miles runAvg speedWind from/ knotsBaromVisibWave heightAir tempDewpointWater temp
2017-Nov-17 15:58N 34°55' E 140°04'916.3
2017-Nov-17 15:24N 34°52' E 139°53'615.4
2017-Nov-17 15:00N 34°53' E 139°46'815.6
2017-Nov-17 14:30N 35°00' E 139°42'917.0
2017-Nov-17 14:00N 35°09' E 139°44'714.5
2017-Nov-17 13:30N 35°16' E 139°46'612.2
2017-Nov-17 13:00N 35°21' E 139°42'815.5
2017-Nov-17 12:31N 35°28' E 139°48'713.7
2017-Nov-17 12:01N 35°34' E 139°48'4 0.3
2017-Nov-16 23:02N 35°38' E 139°46'0 0.0
2017-Nov-16 22:45N 35°38' E 139°46'2 6.8
2017-Nov-16 22:30N 35°36' E 139°46'815.1
2017-Nov-16 22:00N 35°30' E 139°52'815.9
2017-Nov-16 21:30N 35°24' E 139°46'612.0
2017-Nov-16 21:00N 35°18' E 139°44'612.5
2017-Nov-16 20:30N 35°12' E 139°47'816.8
2017-Nov-16 20:00N 35°04' E 139°44'917.1
2017-Nov-16 19:30N 34°56' E 139°42'713.2
2017-Nov-16 19:00N 34°51' E 139°47'1117.1
2017-Nov-16 18:21N 34°51' E 140°01'  
2017-Nov-13 01:00N 35°38' E 139°46'1 2.6
2017-Nov-13 00:30N 35°37' E 139°46'611.7
2017-Nov-13 00:00N 35°33' E 139°52'1 0.5
2017-Nov-12 21:59N 35°34' E 139°53'0 0.0
2017-Nov-12 21:26N 35°34' E 139°53'0 0.0
2017-Nov-12 20:59N 35°34' E 139°53'0 0.0
2017-Nov-12 20:11N 35°34' E 139°53'0 0.0
2017-Nov-12 18:41N 35°34' E 139°53'0 0.0
2017-Nov-12 18:23N 35°34' E 139°53'0 0.0
2017-Nov-12 17:41N 35°34' E 139°53'0 0.0
2017-Nov-12 17:29N 35°34' E 139°53'0 0.0
2017-Nov-12 16:44N 35°34' E 139°53'0 0.0
2017-Nov-12 16:17N 35°34' E 139°53'0 0.0
2017-Nov-12 15:59N 35°34' E 139°53'0 0.0
2017-Nov-12 15:29N 35°34' E 139°53'0 0.0
2017-Nov-12 14:56N 35°34' E 139°53'0 0.1
2017-Nov-12 14:02N 35°34' E 139°53'0 0.0
2017-Nov-12 13:59N 35°34' E 139°53'0 0.0
2017-Nov-12 13:29N 35°34' E 139°53'0 0.0
2017-Nov-12 12:59N 35°34' E 139°53'0 0.1
2017-Nov-12 12:26N 35°34' E 139°53'0 0.0
2017-Nov-12 11:53N 35°34' E 139°53'0 0.0
2017-Nov-12 11:29N 35°34' E 139°53'0 0.0
2017-Nov-12 10:56N 35°34' E 139°53'0 0.0
2017-Nov-12 10:17N 35°34' E 139°53'0 0.2
2017-Nov-12 09:59N 35°34' E 139°53'0 0.0
2017-Nov-12 09:29N 35°34' E 139°53'0 0.0
2017-Nov-12 08:59N 35°34' E 139°53'0 0.1
2017-Nov-12 08:29N 35°34' E 139°53'0 0.1
2017-Nov-12 07:56N 35°34' E 139°53'0 0.0
2017-Nov-12 07:29N 35°34' E 139°53'0 0.0
2017-Nov-12 06:56N 35°34' E 139°53'1 3.1
2017-Nov-12 06:30N 35°32' E 139°53'815.7
2017-Nov-12 06:00N 35°26' E 139°48'713.5
2017-Nov-12 05:30N 35°20' E 139°44'612.2
2017-Nov-12 05:00N 35°14' E 139°47'815.0
2017-Nov-12 04:30N 35°07' E 139°44'816.8
2017-Nov-12 04:00N 35°01' E 139°36'816.4
2017-Nov-12 03:30N 34°56' E 139°29'22913.5
2017-Nov-11 10:38N 34°05' E 134°58'218.0
2017-Nov-11 10:30N 34°08' E 134°58'1417.6
2017-Nov-11 09:41N 34°22' E 135°01'317.8
2017-Nov-11 09:30N 34°24' E 135°03'917.4
2017-Nov-11 09:00N 34°30' E 135°12'917.4
2017-Nov-11 08:30N 34°35' E 135°20'4 0.9
2017-Nov-11 03:31N 34°37' E 135°25'0 0.0
2017-Nov-11 03:29N 34°37' E 135°25'1 2.2
2017-Nov-11 03:00N 34°36' E 135°24'613.2
2017-Nov-11 02:30N 34°32' E 135°17'816.1
2017-Nov-11 02:00N 34°27' E 135°11'1017.1
2017-Nov-11 01:27N 34°20' E 135°02'715.2
2017-Nov-11 01:00N 34°13' E 135°00'816.6
2017-Nov-11 00:30N 34°05' E 135°01'23013.7
2017-Nov-10 07:44N 34°60' E 139°32'416.5
2017-Nov-10 07:31N 35°02' E 139°36'817.0
2017-Nov-10 07:01N 35°08' E 139°44'815.9
2017-Nov-10 06:30N 35°15' E 139°46'612.9
2017-Nov-10 06:00N 35°21' E 139°42'816.8
2017-Nov-10 05:31N 35°28' E 139°48'714.3
2017-Nov-10 05:00N 35°35' E 139°48'3 0.5
2017-Nov-09 22:11N 35°38' E 139°46'0 0.9
2017-Nov-09 21:58N 35°38' E 139°46'2 4.5
2017-Nov-09 21:30N 35°36' E 139°47'4 8.9
2017-Nov-09 21:00N 35°33' E 139°51'713.9
2017-Nov-09 20:30N 35°26' E 139°49'713.9
2017-Nov-09 20:00N 35°20' E 139°45'611.9
2017-Nov-09 19:30N 35°15' E 139°47'612.7
2017-Nov-09 19:00N 35°08' E 139°46'2010.3
2017-Nov-09 17:01N 34°58' E 140°08'018.4
2017-Nov-09 17:00N 34°58' E 140°08'  

Dump ship's entire track history